This is the latest recevied weather packets stored in our database for station/object OE6ATD-13. If no packets are shown the sender has not sent any weather packets the latest 10 day(s).
| Time | Temp. | Humidity | Pressure | Rain* | Wind** | Luminosity | Snow |
|---|---|---|---|---|---|---|---|
| 1778162724 | 23.33° C | 47% | 1009.8 hPa | 0 mm | - | 642 W/m² | - |
| 1778162120 | 22.22° C | 50% | 1009.9 hPa | 0 mm | - | 473 W/m² | - |
| 1778161516 | 22.22° C | 47% | 1010 hPa | 0 mm | - | 280 W/m² | - |
| 1778160927 | 22.22° C | 44% | 1010 hPa | 0 mm | - | 408 W/m² | - |
| 1778160322 | 22.78° C | 44% | 1010.1 hPa | 0 mm | - | 350 W/m² | - |
| 1778159725 | 22.78° C | 43% | 1010.1 hPa | 0 mm | - | 480 W/m² | - |
| 1778159121 | 21.67° C | 50% | 1010.3 hPa | 0 mm | - | 298 W/m² | - |
| 1778158516 | 21.67° C | 50% | 1010.4 hPa | 0 mm | - | 244 W/m² | - |
| 1778157927 | 21.67° C | 50% | 1010.5 hPa | 0 mm | - | 155 W/m² | - |
| 1778157323 | 22.22° C | 46% | 1010.4 hPa | 0 mm | - | 210 W/m² | - |
| 1778156719 | 23.33° C | 42% | 1010.5 hPa | 0 mm | - | 574 W/m² | - |
| 1778156130 | 25° C | 41% | 1010.5 hPa | 0 mm | - | 612 W/m² | - |
| 1778155526 | 24.44° C | 39% | 1010.7 hPa | 0 mm | - | 654 W/m² | - |
| 1778154921 | 24.44° C | 38% | 1010.7 hPa | 0 mm | - | 828 W/m² | - |
| 1778154317 | 24.44° C | 41% | 1010.8 hPa | 0 mm | - | 819 W/m² | - |
| 1778153728 | 23.89° C | 42% | 1010.8 hPa | 0 mm | - | 768 W/m² | - |
| 1778153124 | 23.33° C | 42% | 1010.9 hPa | 0 mm | - | 802 W/m² | - |
| 1778152521 | 23.33° C | 42% | 1011 hPa | 0 mm | - | 637 W/m² | - |
| 1778151916 | 23.33° C | 43% | 1011 hPa | 0 mm | - | 741 W/m² | - |
| 1778151326 | 22.78° C | 44% | 1011.1 hPa | 0 mm | - | 810 W/m² | - |
| 1778150722 | 22.22° C | 46% | 1011.1 hPa | 0 mm | - | 810 W/m² | - |
| 1778150118 | 22.22° C | 45% | 1011.2 hPa | 0 mm | - | 412 W/m² | - |
| 1778149529 | 22.78° C | 44% | 1011.3 hPa | 0 mm | - | 396 W/m² | - |
| 1778148925 | 22.22° C | 45% | 1011.4 hPa | 0 mm | - | 583 W/m² | - |
| 1778148327 | 22.78° C | 44% | 1011.5 hPa | 0 mm | - | 668 W/m² | - |
* Rain latest hour (hover to see other rain measurements)
** Current wind speed in m/s (hover to see current wind gust speed)